createdAt,value
2018-09-25T00:00:42.893Z,2.25
2018-09-25T00:03:17.438Z,1.95
2018-09-25T00:05:51.942Z,2.02
2018-09-25T00:08:26.342Z,2.65
2018-09-25T00:11:00.754Z,1.60
2018-09-25T00:13:36.491Z,2.00
2018-09-25T00:16:11.061Z,2.33
2018-09-25T00:18:46.889Z,1.95
2018-09-25T00:21:21.233Z,2.00
2018-09-25T00:23:55.613Z,2.22
2018-09-25T00:26:30.438Z,2.42
2018-09-25T00:29:04.927Z,2.98
2018-09-25T00:31:39.478Z,1.87
2018-09-25T00:34:13.962Z,2.50
2018-09-25T00:36:48.436Z,2.50
2018-09-25T00:39:22.987Z,2.10
2018-09-25T00:41:58.523Z,2.50
2018-09-25T00:44:32.911Z,2.22
2018-09-25T00:47:07.986Z,2.95
2018-09-25T00:49:42.317Z,2.60
2018-09-25T00:52:16.885Z,2.45
2018-09-25T00:54:51.410Z,2.17
2018-09-25T00:57:26.804Z,1.57
2018-09-25T01:00:01.339Z,2.12
2018-09-25T01:02:37.136Z,1.95
2018-09-25T01:05:11.741Z,1.70
2018-09-25T01:07:46.175Z,2.37
2018-09-25T01:10:20.590Z,1.90
2018-09-25T01:12:57.671Z,2.75
2018-09-25T01:15:32.030Z,2.10
2018-09-25T01:18:06.539Z,2.50
2018-09-25T01:20:41.226Z,1.82
2018-09-25T01:23:16.450Z,2.10
2018-09-25T01:25:50.919Z,2.10
2018-09-25T01:28:25.294Z,2.33
2018-09-25T01:31:00.057Z,1.95
2018-09-25T01:33:34.664Z,2.87
2018-09-25T01:36:09.711Z,1.60
2018-09-25T01:38:44.152Z,1.50
2018-09-25T01:41:18.691Z,2.25
2018-09-25T01:43:54.158Z,2.00
2018-09-25T01:46:28.701Z,1.90
2018-09-25T01:49:04.071Z,2.72
2018-09-25T01:51:40.193Z,2.20
2018-09-25T01:54:14.717Z,2.00
2018-09-25T01:56:49.193Z,4.50
2018-09-25T01:59:23.933Z,1.70
2018-09-25T02:01:59.379Z,1.85
2018-09-25T02:04:38.575Z,2.62
2018-09-25T02:07:12.978Z,1.80
2018-09-25T02:09:47.520Z,2.20
2018-09-25T02:12:21.908Z,2.60
2018-09-25T02:14:56.417Z,2.40
2018-09-25T02:17:30.784Z,2.20
2018-09-25T02:20:05.931Z,2.02
2018-09-25T02:22:40.950Z,2.10
2018-09-25T02:25:15.501Z,2.47
2018-09-25T02:27:50.288Z,1.82
2018-09-25T02:30:24.910Z,2.22
2018-09-25T02:32:59.384Z,2.15
2018-09-25T02:35:33.842Z,2.55
2018-09-25T02:38:08.336Z,2.52
2018-09-25T02:40:42.810Z,2.20
2018-09-25T02:43:18.778Z,2.40
2018-09-25T02:45:53.646Z,2.47
2018-09-25T02:48:28.239Z,2.50
2018-09-25T02:51:03.170Z,3.12
2018-09-25T02:53:37.691Z,1.95
2018-09-25T02:56:12.302Z,2.00
2018-09-25T02:58:46.800Z,2.20
2018-09-25T03:01:21.210Z,1.62
2018-09-25T03:03:56.728Z,1.80
2018-09-25T03:06:31.232Z,1.45
2018-09-25T03:09:05.740Z,2.00
2018-09-25T03:11:41.198Z,4.10
2018-09-25T03:14:15.565Z,2.02
2018-09-25T03:16:50.133Z,2.35
2018-09-25T03:19:25.368Z,3.25
2018-09-25T03:22:02.554Z,2.42
2018-09-25T03:24:37.111Z,2.12
2018-09-25T03:27:11.719Z,2.52
2018-09-25T03:29:46.870Z,2.83
2018-09-25T03:32:23.533Z,2.65
2018-09-25T03:34:57.937Z,2.00
2018-09-25T03:37:32.426Z,2.00
2018-09-25T03:40:06.827Z,2.65
2018-09-25T03:42:41.525Z,1.62
2018-09-25T03:45:16.086Z,2.00
2018-09-25T03:47:50.740Z,3.10
2018-09-25T03:50:25.117Z,1.80
2018-09-25T03:52:59.687Z,1.85
2018-09-25T03:55:34.345Z,1.90
2018-09-25T03:58:09.068Z,2.52
2018-09-25T04:00:43.462Z,1.82
2018-09-25T04:03:18.000Z,2.67
2018-09-25T04:05:52.476Z,1.57
2018-09-25T04:08:26.856Z,2.75
2018-09-25T04:11:01.331Z,2.75
2018-09-25T04:13:35.684Z,2.40
2018-09-25T04:16:10.100Z,2.40
2018-09-25T04:18:44.480Z,2.72
2018-09-25T04:21:18.907Z,2.40
2018-09-25T04:23:53.272Z,2.20
2018-09-25T04:26:27.846Z,2.45
2018-09-25T04:29:02.382Z,1.98
2018-09-25T04:31:37.814Z,1.82
2018-09-25T04:34:12.272Z,2.83
2018-09-25T04:36:46.630Z,2.10
2018-09-25T04:39:21.112Z,1.87
2018-09-25T04:41:55.550Z,2.30
2018-09-25T04:44:29.924Z,2.20
2018-09-25T04:47:04.440Z,2.22
2018-09-25T04:49:38.941Z,2.22
2018-09-25T04:52:13.382Z,2.60
2018-09-25T04:54:48.033Z,2.47
2018-09-25T04:57:23.092Z,2.40
2018-09-25T04:59:57.970Z,2.33
2018-09-25T05:02:32.680Z,2.75
2018-09-25T05:05:07.723Z,2.62
2018-09-25T05:07:42.505Z,2.35
2018-09-25T05:10:17.141Z,1.90
2018-09-25T05:12:52.671Z,2.10
2018-09-25T05:15:27.199Z,2.72
2018-09-25T05:18:01.728Z,3.00
2018-09-25T05:20:36.205Z,2.40
2018-09-25T05:23:11.867Z,2.65
2018-09-25T05:25:46.235Z,2.10
2018-09-25T05:28:20.623Z,2.80
2018-09-25T05:30:55.176Z,3.08
2018-09-25T05:33:31.646Z,2.00
2018-09-25T05:36:06.550Z,2.20
2018-09-25T05:38:41.596Z,2.58
2018-09-25T05:41:16.085Z,2.72
2018-09-25T05:43:50.586Z,2.25
2018-09-25T05:46:25.133Z,3.15
2018-09-25T05:48:59.623Z,2.62
2018-09-25T05:51:34.194Z,2.72
2018-09-25T05:54:08.575Z,2.60
2018-09-25T05:56:43.073Z,2.95
2018-09-25T05:59:17.599Z,3.33
2018-09-25T06:01:55.214Z,3.62
2018-09-25T06:04:29.725Z,2.65
2018-09-25T06:07:04.403Z,3.85
2018-09-25T06:09:38.968Z,4.78
2018-09-25T06:12:14.401Z,2.22
2018-09-25T06:14:48.811Z,4.12
2018-09-25T06:17:24.415Z,3.17
2018-09-25T06:19:58.877Z,3.20
2018-09-25T06:22:33.375Z,3.25
2018-09-25T06:25:07.955Z,2.85
2018-09-25T06:27:42.614Z,3.72
2018-09-25T06:30:17.081Z,3.05
2018-09-25T06:32:52.275Z,3.60
2018-09-25T06:35:27.814Z,3.60
2018-09-25T06:38:02.344Z,3.52
2018-09-25T06:40:36.838Z,3.50
2018-09-25T06:43:11.344Z,4.03
2018-09-25T06:45:45.734Z,3.37
2018-09-25T06:48:20.244Z,4.08
2018-09-25T06:50:54.634Z,3.42
2018-09-25T06:53:29.205Z,4.47
2018-09-25T06:56:03.706Z,4.92
2018-09-25T06:58:38.280Z,5.72
2018-09-25T07:01:12.775Z,4.62
2018-09-25T07:03:47.268Z,5.33
2018-09-25T07:06:21.821Z,5.47
2018-09-25T07:08:56.341Z,6.17
2018-09-25T07:11:30.809Z,6.40
2018-09-25T07:14:05.167Z,6.67
2018-09-25T07:16:39.610Z,6.92
2018-09-25T07:19:13.956Z,7.17
2018-09-25T07:21:49.646Z,7.08
2018-09-25T07:24:24.240Z,7.30
2018-09-25T07:26:58.685Z,6.62
2018-09-25T07:29:33.207Z,7.35
2018-09-25T07:32:07.746Z,7.25
2018-09-25T07:34:42.246Z,7.85
2018-09-25T07:37:16.642Z,8.65
2018-09-25T07:39:51.116Z,8.25
2018-09-25T07:42:30.349Z,7.80
2018-09-25T07:45:05.219Z,7.35
2018-09-25T07:47:39.633Z,7.53
2018-09-25T07:50:14.996Z,8.53
2018-09-25T07:52:49.760Z,7.20
2018-09-25T07:55:25.986Z,6.60
2018-09-25T07:58:00.354Z,7.12
2018-09-25T08:00:34.846Z,8.00
2018-09-25T08:03:09.624Z,6.30
2018-09-25T08:05:44.176Z,5.53
2018-09-25T08:08:18.697Z,5.53
2018-09-25T08:10:53.097Z,4.55
2018-09-25T08:13:27.630Z,4.83
2018-09-25T08:16:01.974Z,4.97
2018-09-25T08:18:37.818Z,4.35
2018-09-25T08:21:12.419Z,3.47
2018-09-25T08:23:47.049Z,3.00
2018-09-25T08:26:21.437Z,4.05
2018-09-25T08:28:55.933Z,3.00
2018-09-25T08:31:30.525Z,4.42
2018-09-25T08:34:05.013Z,3.20
2018-09-25T08:36:39.473Z,3.77
2018-09-25T08:39:15.072Z,2.70
2018-09-25T08:41:49.620Z,2.75
2018-09-25T08:44:23.992Z,2.37
2018-09-25T08:46:58.345Z,4.03
2018-09-25T08:49:32.829Z,2.50
2018-09-25T08:52:09.304Z,3.20
2018-09-25T08:54:44.637Z,2.72
2018-09-25T08:57:19.179Z,3.00
2018-09-25T08:59:53.954Z,1.65
2018-09-25T09:02:30.436Z,2.27
2018-09-25T09:05:05.060Z,2.67
2018-09-25T09:07:39.496Z,2.42
2018-09-25T09:10:17.436Z,3.00
2018-09-25T09:12:52.998Z,2.17
2018-09-25T09:15:29.748Z,1.85
2018-09-25T09:18:04.080Z,2.50
2018-09-25T09:20:39.596Z,2.70
2018-09-25T09:23:16.514Z,1.80
2018-09-25T09:25:50.998Z,2.40
2018-09-25T09:28:25.482Z,2.08
2018-09-25T09:30:59.851Z,1.90
2018-09-25T09:33:34.410Z,1.85
2018-09-25T09:36:09.131Z,1.67
2018-09-25T09:38:44.515Z,2.33
2018-09-25T09:41:18.983Z,1.45
2018-09-25T09:43:53.340Z,1.90
2018-09-25T09:46:28.225Z,1.75
2018-09-25T09:49:02.893Z,1.60
2018-09-25T09:51:37.382Z,1.80
2018-09-25T09:54:11.873Z,2.00
2018-09-25T09:56:46.247Z,1.40
2018-09-25T09:59:20.716Z,1.42
2018-09-25T10:01:55.199Z,0.80
2018-09-25T10:04:29.593Z,1.35
2018-09-25T10:07:04.138Z,1.35
2018-09-25T10:09:38.477Z,1.75
2018-09-25T10:12:13.069Z,1.17
2018-09-25T10:14:48.024Z,0.98
2018-09-25T10:17:23.510Z,1.30
2018-09-25T10:19:57.951Z,0.93
2018-09-25T10:22:32.673Z,0.70
2018-09-25T10:25:07.721Z,0.88
2018-09-25T10:27:42.161Z,1.05
2018-09-25T10:30:17.983Z,1.40
2018-09-25T10:32:52.450Z,0.65
2018-09-25T10:35:28.629Z,1.00
2018-09-25T10:38:03.184Z,0.88
2018-09-25T10:40:39.665Z,0.90
2018-09-25T10:43:14.284Z,1.27
2018-09-25T10:45:50.153Z,1.00
2018-09-25T10:48:24.816Z,1.10
2018-09-25T10:50:59.270Z,0.60
2018-09-25T10:53:33.817Z,0.60
2018-09-25T10:56:08.443Z,0.72
2018-09-25T10:58:42.796Z,0.82
2018-09-25T11:01:17.335Z,1.22
2018-09-25T11:03:58.738Z,1.05
2018-09-25T11:06:33.253Z,0.75
2018-09-25T11:09:07.713Z,1.00
2018-09-25T11:11:43.404Z,0.82
2018-09-25T11:14:17.841Z,1.02
2018-09-25T11:16:52.442Z,1.02
2018-09-25T11:19:26.970Z,1.20
2018-09-25T11:22:01.539Z,0.85
2018-09-25T11:24:35.964Z,0.82
2018-09-25T11:27:10.372Z,0.85
2018-09-25T11:29:44.834Z,1.20
2018-09-25T11:32:20.964Z,1.05
2018-09-25T11:34:55.511Z,0.60
2018-09-25T11:37:30.073Z,1.42
2018-09-25T11:40:04.617Z,0.70
2018-09-25T11:42:39.284Z,1.20
2018-09-25T11:45:13.701Z,0.90
2018-09-25T11:47:48.463Z,0.82
2018-09-25T11:50:24.535Z,0.93
2018-09-25T11:53:01.135Z,1.27
2018-09-25T11:55:35.811Z,0.88
2018-09-25T11:58:10.491Z,1.15
2018-09-25T12:00:45.117Z,0.95
2018-09-25T12:03:20.933Z,0.80
2018-09-25T12:05:59.186Z,0.90
2018-09-25T12:08:33.615Z,1.12
2018-09-25T12:11:08.270Z,0.98
2018-09-25T12:13:42.947Z,1.07
2018-09-25T12:16:17.423Z,1.22
2018-09-25T12:18:51.881Z,0.90
2018-09-25T12:21:26.367Z,0.70
2018-09-25T12:24:00.951Z,0.53
2018-09-25T12:26:35.740Z,0.80
2018-09-25T12:29:10.269Z,0.70
2018-09-25T12:31:45.210Z,1.07
2018-09-25T12:34:19.705Z,2.52
2018-09-25T12:36:54.211Z,1.15
2018-09-25T12:39:28.793Z,1.00
2018-09-25T12:42:03.624Z,0.60
2018-09-25T12:44:38.175Z,0.50
2018-09-25T12:47:13.327Z,0.70
2018-09-25T12:49:47.903Z,0.60
2018-09-25T12:52:22.968Z,0.70
2018-09-25T12:54:57.474Z,1.02
2018-09-25T12:57:32.094Z,0.55
2018-09-25T13:00:06.524Z,1.15
2018-09-25T13:02:41.247Z,0.75
2018-09-25T13:05:15.764Z,1.10
2018-09-25T13:07:50.294Z,1.12
2018-09-25T13:10:24.608Z,1.65
2018-09-25T13:12:59.211Z,0.72
2018-09-25T13:15:33.742Z,1.05
2018-09-25T13:18:08.332Z,0.60
2018-09-25T13:20:43.560Z,1.20
2018-09-25T13:23:18.070Z,0.78
2018-09-25T13:25:54.490Z,1.02
2018-09-25T13:28:28.853Z,1.35
2018-09-25T13:31:03.491Z,1.05
2018-09-25T13:33:37.857Z,1.22
2018-09-25T13:36:12.349Z,1.20
2018-09-25T13:38:46.921Z,0.90
2018-09-25T13:41:22.806Z,1.50
2018-09-25T13:43:57.648Z,1.20
2018-09-25T13:46:32.255Z,1.03
2018-09-25T13:49:06.842Z,1.07
2018-09-25T13:51:41.424Z,0.90
2018-09-25T13:54:16.012Z,0.87
2018-09-25T13:56:50.483Z,1.00
2018-09-25T13:59:24.975Z,0.70
2018-09-25T14:01:59.537Z,1.00
2018-09-25T14:04:33.943Z,1.30
2018-09-25T14:07:08.322Z,0.97
2018-09-25T14:09:42.682Z,0.90
2018-09-25T14:12:19.129Z,0.90
2018-09-25T14:14:53.643Z,0.83
2018-09-25T14:17:28.898Z,1.30
2018-09-25T14:20:03.292Z,0.83
2018-09-25T14:22:37.968Z,0.50
2018-09-25T14:25:12.397Z,0.60
2018-09-25T14:27:46.982Z,0.63
2018-09-25T14:30:21.334Z,1.43
2018-09-25T14:32:57.901Z,1.30
2018-09-25T14:35:32.471Z,0.50
2018-09-25T14:38:06.864Z,1.20
2018-09-25T14:40:41.447Z,1.10
2018-09-25T14:43:16.127Z,0.73
2018-09-25T14:45:50.505Z,1.10
2018-09-25T14:48:24.869Z,0.97
2018-09-25T14:51:00.845Z,0.90
2018-09-25T14:53:35.407Z,0.70
2018-09-25T14:56:10.302Z,0.97
2018-09-25T14:58:44.704Z,0.60
2018-09-25T15:01:19.168Z,0.70
2018-09-25T15:03:53.855Z,1.00
2018-09-25T15:06:28.400Z,0.70
2018-09-25T15:09:02.765Z,0.90
2018-09-25T15:11:37.336Z,0.90
2018-09-25T15:14:11.872Z,1.17
2018-09-25T15:16:46.276Z,0.70
2018-09-25T15:19:20.643Z,0.60
2018-09-25T15:21:56.435Z,0.60
2018-09-25T15:24:30.510Z,0.53
2018-09-25T15:27:05.047Z,1.07
2018-09-25T15:29:39.717Z,1.03
2018-09-25T15:32:15.885Z,0.77
2018-09-25T15:34:50.971Z,1.10
2018-09-25T15:37:25.396Z,0.70
2018-09-25T15:39:59.777Z,0.70
2018-09-25T15:42:34.430Z,1.10
2018-09-25T15:45:08.802Z,1.00
2018-09-25T15:47:43.311Z,1.00
2018-09-25T15:50:18.091Z,0.90
2018-09-25T15:52:52.706Z,1.00
2018-09-25T15:55:27.441Z,0.88
2018-09-25T15:58:02.851Z,0.98
2018-09-25T16:00:37.507Z,0.80
2018-09-25T16:03:12.391Z,0.95
2018-09-25T16:05:47.048Z,0.70
2018-09-25T16:08:22.769Z,1.80
2018-09-25T16:10:57.366Z,0.78
2018-09-25T16:13:31.956Z,0.75
2018-09-25T16:16:06.452Z,0.90
2018-09-25T16:18:40.873Z,0.75
2018-09-25T16:21:15.521Z,0.98
2018-09-25T16:23:50.764Z,0.93
2018-09-25T16:26:25.261Z,0.95
2018-09-25T16:28:59.910Z,0.62
2018-09-25T16:31:36.873Z,0.75
2018-09-25T16:34:11.283Z,0.80
2018-09-25T16:36:45.919Z,0.70
2018-09-25T16:39:20.978Z,0.57
2018-09-25T16:41:55.869Z,0.60
2018-09-25T16:44:30.546Z,0.70
2018-09-25T16:47:05.127Z,1.75
2018-09-25T16:49:39.695Z,0.70
2018-09-25T16:52:14.237Z,1.10
2018-09-25T16:54:48.856Z,1.50
2018-09-25T16:57:23.368Z,1.05
2018-09-25T16:59:57.995Z,1.30
2018-09-25T17:02:33.669Z,1.20
2018-09-25T17:05:08.416Z,0.75
2018-09-25T17:07:43.085Z,2.58
2018-09-25T17:10:18.976Z,0.80
2018-09-25T17:12:53.759Z,0.78
2018-09-25T17:15:29.663Z,1.32
2018-09-25T17:18:04.465Z,0.80
2018-09-25T17:20:42.591Z,0.90
2018-09-25T17:23:19.255Z,1.40
2018-09-25T17:25:55.970Z,0.93
2018-09-25T17:28:32.270Z,1.07
2018-09-25T17:31:09.187Z,0.95
2018-09-25T17:33:44.240Z,1.10
2018-09-25T17:36:19.041Z,1.60
2018-09-25T17:38:54.649Z,1.42
2018-09-25T17:41:30.871Z,0.90
2018-09-25T17:44:05.612Z,1.42
2018-09-25T17:46:41.605Z,1.60
2018-09-25T17:49:16.714Z,1.17
2018-09-25T17:51:51.512Z,2.22
2018-09-25T17:54:26.320Z,2.02
2018-09-25T17:57:03.800Z,2.05
2018-09-25T17:59:38.612Z,2.62
2018-09-25T18:02:13.550Z,1.77
2018-09-25T18:04:48.004Z,2.67
2018-09-25T18:07:22.509Z,2.60
2018-09-25T18:09:57.236Z,2.08
2018-09-25T18:12:32.623Z,1.92
2018-09-25T18:15:09.088Z,2.12
2018-09-25T18:17:43.801Z,1.70
2018-09-25T18:20:19.373Z,1.67
2018-09-25T18:22:56.410Z,1.90
2018-09-25T18:25:32.863Z,2.35
2018-09-25T18:28:07.609Z,2.30
2018-09-25T18:30:42.916Z,1.87
2018-09-25T18:33:18.354Z,2.22
2018-09-25T18:35:53.014Z,1.40
2018-09-25T18:38:27.422Z,2.17
2018-09-25T18:41:02.043Z,1.95
2018-09-25T18:43:36.540Z,2.45
2018-09-25T18:46:12.077Z,1.52
2018-09-25T18:48:46.814Z,1.00
2018-09-25T18:51:21.643Z,0.70
2018-09-25T18:53:56.157Z,0.90
2018-09-25T18:56:30.756Z,1.02
2018-09-25T18:59:05.297Z,1.80
2018-09-25T19:01:41.776Z,0.70
2018-09-25T19:04:17.011Z,0.60
2018-09-25T19:06:51.714Z,1.07
2018-09-25T19:09:26.685Z,2.60
2018-09-25T19:12:03.646Z,1.80
2018-09-25T19:14:38.276Z,1.95
2018-09-25T19:17:13.461Z,2.25
2018-09-25T19:19:48.752Z,1.30
2018-09-25T19:22:25.650Z,0.70
2018-09-25T19:25:00.223Z,0.93
2018-09-25T19:27:34.775Z,0.85
2018-09-25T19:30:12.704Z,1.00
2018-09-25T19:32:54.406Z,0.75
2018-09-25T19:35:29.732Z,1.75
2018-09-25T19:38:04.246Z,0.60
2018-09-25T19:40:38.660Z,0.90
2018-09-25T19:43:13.422Z,1.35
2018-09-25T19:45:48.382Z,1.20
2018-09-25T19:48:22.842Z,2.10
2018-09-25T19:50:59.035Z,1.40
2018-09-25T19:53:33.594Z,0.62
2018-09-25T19:56:08.240Z,0.85
2018-09-25T19:58:42.967Z,1.10
2018-09-25T20:01:17.738Z,1.10
2018-09-25T20:03:53.352Z,0.90
2018-09-25T20:06:28.171Z,1.00
2018-09-25T20:12:33.367Z,1.67
2018-09-25T20:15:07.881Z,2.25
2018-09-25T20:20:24.078Z,1.32
2018-09-25T20:22:58.727Z,1.00
2018-09-25T20:25:33.265Z,1.42
2018-09-25T20:28:08.330Z,0.93
2018-09-25T20:30:42.834Z,1.00
2018-09-25T20:33:26.212Z,0.98
2018-09-25T20:36:00.677Z,1.90
2018-09-25T20:38:35.152Z,0.80
2018-09-25T20:41:10.579Z,0.90
2018-09-25T20:43:46.456Z,1.25
2018-09-25T20:46:21.434Z,1.07
2018-09-25T20:48:56.230Z,1.00
2018-09-25T20:51:31.522Z,1.20
2018-09-25T20:54:07.595Z,1.50
2018-09-25T20:56:43.966Z,1.55
2018-09-25T20:59:18.756Z,1.00
2018-09-25T21:01:53.483Z,0.70
2018-09-25T21:04:36.805Z,1.05
2018-09-25T21:07:11.187Z,0.57
2018-09-25T21:50:12.828Z,1.40
2018-09-25T21:52:51.731Z,0.93
2018-09-25T21:55:26.934Z,0.90
2018-09-25T21:58:01.898Z,1.00
2018-09-25T22:00:37.456Z,1.50
2018-09-25T22:03:14.226Z,1.12
2018-09-25T22:05:49.840Z,0.95
2018-09-25T22:08:25.414Z,1.47
2018-09-25T22:11:01.107Z,2.25
2018-09-25T22:13:35.629Z,1.05
2018-09-25T22:16:10.010Z,1.30
2018-09-25T22:18:46.228Z,1.10
2018-09-25T22:21:21.413Z,1.75
2018-09-25T22:23:56.657Z,1.10
2018-09-25T22:26:30.999Z,0.98
2018-09-25T22:29:05.326Z,1.20
2018-09-25T22:31:41.235Z,0.75
2018-09-25T22:34:15.770Z,1.57
2018-09-25T22:36:50.398Z,1.90
2018-09-25T22:39:24.891Z,1.25
2018-09-25T22:41:59.434Z,1.67
2018-09-25T22:44:33.832Z,2.37
2018-09-25T22:47:08.716Z,1.95
2018-09-25T22:49:43.074Z,1.67
2018-09-25T22:52:17.733Z,1.87
2018-09-25T22:54:52.237Z,1.52
2018-09-25T22:57:27.246Z,1.98
2018-09-25T23:00:02.695Z,1.37
2018-09-25T23:02:37.308Z,1.72
2018-09-25T23:05:11.826Z,1.45
2018-09-25T23:07:46.378Z,1.60
2018-09-25T23:10:20.799Z,1.20
2018-09-25T23:12:59.034Z,2.35
2018-09-25T23:15:33.660Z,1.62
2018-09-25T23:18:09.107Z,0.95
2018-09-25T23:20:43.616Z,1.85
2018-09-25T23:23:18.832Z,1.45
2018-09-25T23:25:53.227Z,1.17
2018-09-25T23:28:27.606Z,1.42
2018-09-25T23:31:02.691Z,1.70
2018-09-25T23:33:37.244Z,1.07
2018-09-25T23:36:11.611Z,1.60
2018-09-25T23:38:46.187Z,2.45
2018-09-25T23:43:22.648Z,1.15
2018-09-25T23:45:56.866Z,1.00
2018-09-25T23:50:32.439Z,1.52
2018-09-25T23:53:41.026Z,1.40
2018-09-25T23:56:31.278Z,1.10
2018-09-25T23:59:20.082Z,1.00
